sensor_id;sensor_type;location;lat;lon;timestamp;P1;durP1;ratioP1;P2;durP2;ratioP2
69026;SDS011;56080;47.594;19.116;2023-02-28T00:01:40;18.00;;;10.40;;
69026;SDS011;56080;47.594;19.116;2023-02-28T00:11:40;20.60;;;11.50;;
69026;SDS011;56080;47.594;19.116;2023-02-28T00:21:41;20.30;;;11.90;;
69026;SDS011;56080;47.594;19.116;2023-02-28T00:31:40;19.20;;;11.10;;
69026;SDS011;56080;47.594;19.116;2023-02-28T00:41:41;15.90;;;9.10;;
69026;SDS011;56080;47.594;19.116;2023-02-28T00:51:41;16.60;;;9.00;;
69026;SDS011;56080;47.594;19.116;2023-02-28T01:01:41;16.90;;;10.10;;
69026;SDS011;56080;47.594;19.116;2023-02-28T01:11:41;18.60;;;10.50;;
69026;SDS011;56080;47.594;19.116;2023-02-28T01:21:41;14.50;;;8.90;;
69026;SDS011;56080;47.594;19.116;2023-02-28T01:31:42;16.90;;;9.70;;
69026;SDS011;56080;47.594;19.116;2023-02-28T01:41:43;16.50;;;8.80;;
69026;SDS011;56080;47.594;19.116;2023-02-28T01:51:46;16.70;;;8.70;;
69026;SDS011;56080;47.594;19.116;2023-02-28T02:01:42;13.40;;;8.00;;
69026;SDS011;56080;47.594;19.116;2023-02-28T02:11:42;15.70;;;8.50;;
69026;SDS011;56080;47.594;19.116;2023-02-28T02:41:48;16.40;;;8.60;;
69026;SDS011;56080;47.594;19.116;2023-02-28T02:51:43;13.30;;;7.50;;
69026;SDS011;56080;47.594;19.116;2023-02-28T03:01:44;12.60;;;7.60;;
69026;SDS011;56080;47.594;19.116;2023-02-28T03:11:42;17.80;;;9.80;;
69026;SDS011;56080;47.594;19.116;2023-02-28T03:31:48;14.20;;;7.40;;
69026;SDS011;56080;47.594;19.116;2023-02-28T03:41:51;13.60;;;7.50;;
69026;SDS011;56080;47.594;19.116;2023-02-28T03:51:43;14.50;;;8.00;;
69026;SDS011;56080;47.594;19.116;2023-02-28T04:01:47;13.40;;;7.40;;
69026;SDS011;56080;47.594;19.116;2023-02-28T04:11:45;13.20;;;7.40;;
69026;SDS011;56080;47.594;19.116;2023-02-28T04:21:47;13.70;;;7.30;;
69026;SDS011;56080;47.594;19.116;2023-02-28T04:31:44;13.40;;;7.70;;
69026;SDS011;56080;47.594;19.116;2023-02-28T04:41:44;13.10;;;6.80;;
69026;SDS011;56080;47.594;19.116;2023-02-28T04:51:44;12.40;;;6.80;;
69026;SDS011;56080;47.594;19.116;2023-02-28T05:01:46;11.10;;;5.80;;
69026;SDS011;56080;47.594;19.116;2023-02-28T05:11:45;12.60;;;6.20;;
69026;SDS011;56080;47.594;19.116;2023-02-28T05:21:49;10.40;;;5.70;;
69026;SDS011;56080;47.594;19.116;2023-02-28T05:31:44;9.70;;;5.00;;
69026;SDS011;56080;47.594;19.116;2023-02-28T05:41:44;11.90;;;6.20;;
69026;SDS011;56080;47.594;19.116;2023-02-28T05:51:46;11.40;;;5.70;;
69026;SDS011;56080;47.594;19.116;2023-02-28T06:01:47;10.30;;;4.80;;
69026;SDS011;56080;47.594;19.116;2023-02-28T06:11:45;13.10;;;6.60;;
69026;SDS011;56080;47.594;19.116;2023-02-28T06:21:45;11.60;;;6.40;;
69026;SDS011;56080;47.594;19.116;2023-02-28T06:31:45;10.30;;;5.50;;
69026;SDS011;56080;47.594;19.116;2023-02-28T06:41:57;11.10;;;5.20;;
69026;SDS011;56080;47.594;19.116;2023-02-28T06:51:47;9.50;;;5.10;;
69026;SDS011;56080;47.594;19.116;2023-02-28T07:01:46;10.90;;;5.20;;
69026;SDS011;56080;47.594;19.116;2023-02-28T07:11:46;9.80;;;4.90;;
69026;SDS011;56080;47.594;19.116;2023-02-28T07:21:46;9.60;;;4.80;;
69026;SDS011;56080;47.594;19.116;2023-02-28T07:31:46;11.30;;;5.20;;
69026;SDS011;56080;47.594;19.116;2023-02-28T07:41:53;11.00;;;5.30;;
69026;SDS011;56080;47.594;19.116;2023-02-28T07:51:46;8.60;;;4.60;;
69026;SDS011;56080;47.594;19.116;2023-02-28T08:01:48;9.10;;;4.80;;
69026;SDS011;56080;47.594;19.116;2023-02-28T08:11:47;8.80;;;4.40;;
69026;SDS011;56080;47.594;19.116;2023-02-28T08:21:48;8.60;;;4.50;;
69026;SDS011;56080;47.594;19.116;2023-02-28T08:31:48;11.60;;;5.50;;
69026;SDS011;56080;47.594;19.116;2023-02-28T08:41:48;10.30;;;5.00;;
69026;SDS011;56080;47.594;19.116;2023-02-28T08:51:49;9.80;;;5.20;;
69026;SDS011;56080;47.594;19.116;2023-02-28T09:01:51;10.60;;;5.70;;
69026;SDS011;56080;47.594;19.116;2023-02-28T09:21:50;9.90;;;4.50;;
69026;SDS011;56080;47.594;19.116;2023-02-28T09:31:51;8.90;;;4.60;;
69026;SDS011;56080;47.594;19.116;2023-02-28T09:42:00;8.60;;;4.20;;
69026;SDS011;56080;47.594;19.116;2023-02-28T10:11:54;7.70;;;3.50;;
69026;SDS011;56080;47.594;19.116;2023-02-28T10:31:53;7.10;;;3.50;;
69026;SDS011;56080;47.594;19.116;2023-02-28T10:41:54;7.80;;;3.60;;
69026;SDS011;56080;47.594;19.116;2023-02-28T10:51:56;8.60;;;4.70;;
69026;SDS011;56080;47.594;19.116;2023-02-28T11:01:56;8.40;;;4.20;;
69026;SDS011;56080;47.594;19.116;2023-02-28T11:11:56;7.50;;;4.20;;
69026;SDS011;56080;47.594;19.116;2023-02-28T11:22:03;8.00;;;4.10;;
69026;SDS011;56080;47.594;19.116;2023-02-28T11:52:17;7.40;;;3.90;;
69026;SDS011;56080;47.594;19.116;2023-02-28T12:02:02;8.30;;;4.30;;
69026;SDS011;56080;47.594;19.116;2023-02-28T12:22:12;7.50;;;3.60;;
69026;SDS011;56080;47.594;19.116;2023-02-28T12:32:07;7.40;;;3.90;;
69026;SDS011;56080;47.594;19.116;2023-02-28T12:42:05;6.90;;;3.60;;
69026;SDS011;56080;47.594;19.116;2023-02-28T12:52:02;8.50;;;3.70;;
69026;SDS011;56080;47.594;19.116;2023-02-28T13:12:04;9.10;;;4.20;;
69026;SDS011;56080;47.594;19.116;2023-02-28T13:22:05;7.10;;;4.10;;
69026;SDS011;56080;47.594;19.116;2023-02-28T13:52:14;8.30;;;3.80;;
69026;SDS011;56080;47.594;19.116;2023-02-28T14:03:05;6.60;;;3.50;;
69026;SDS011;56080;47.594;19.116;2023-02-28T14:22:20;8.40;;;4.20;;
69026;SDS011;56080;47.594;19.116;2023-02-28T14:52:21;6.60;;;3.00;;
69026;SDS011;56080;47.594;19.116;2023-02-28T15:02:19;6.20;;;3.30;;
69026;SDS011;56080;47.594;19.116;2023-02-28T15:12:11;6.70;;;3.20;;
69026;SDS011;56080;47.594;19.116;2023-02-28T15:42:20;7.50;;;3.70;;
69026;SDS011;56080;47.594;19.116;2023-02-28T15:52:12;9.10;;;4.60;;
69026;SDS011;56080;47.594;19.116;2023-02-28T16:12:13;9.20;;;4.20;;
69026;SDS011;56080;47.594;19.116;2023-02-28T16:22:13;11.30;;;5.50;;
69026;SDS011;56080;47.594;19.116;2023-02-28T16:32:15;11.00;;;5.40;;
69026;SDS011;56080;47.594;19.116;2023-02-28T16:42:16;10.50;;;6.00;;
69026;SDS011;56080;47.594;19.116;2023-02-28T16:52:13;11.00;;;5.90;;
69026;SDS011;56080;47.594;19.116;2023-02-28T17:02:19;10.10;;;5.50;;
69026;SDS011;56080;47.594;19.116;2023-02-28T17:12:13;9.40;;;5.20;;
69026;SDS011;56080;47.594;19.116;2023-02-28T17:22:13;12.90;;;6.90;;
69026;SDS011;56080;47.594;19.116;2023-02-28T17:32:24;12.30;;;6.50;;
69026;SDS011;56080;47.594;19.116;2023-02-28T17:42:13;11.80;;;6.50;;
69026;SDS011;56080;47.594;19.116;2023-02-28T17:52:14;12.50;;;6.20;;
69026;SDS011;56080;47.594;19.116;2023-02-28T18:02:14;11.60;;;6.00;;
69026;SDS011;56080;47.594;19.116;2023-02-28T18:12:15;13.00;;;6.80;;
69026;SDS011;56080;47.594;19.116;2023-02-28T18:22:17;12.80;;;6.70;;
69026;SDS011;56080;47.594;19.116;2023-02-28T18:32:16;12.90;;;7.10;;
69026;SDS011;56080;47.594;19.116;2023-02-28T18:42:16;13.50;;;7.80;;
69026;SDS011;56080;47.594;19.116;2023-02-28T18:52:17;14.60;;;8.00;;
69026;SDS011;56080;47.594;19.116;2023-02-28T19:02:17;13.60;;;7.70;;
69026;SDS011;56080;47.594;19.116;2023-02-28T19:12:18;16.00;;;8.30;;
69026;SDS011;56080;47.594;19.116;2023-02-28T19:22:18;14.10;;;7.90;;
69026;SDS011;56080;47.594;19.116;2023-02-28T19:32:18;13.80;;;7.30;;
69026;SDS011;56080;47.594;19.116;2023-02-28T19:42:22;13.10;;;7.40;;
69026;SDS011;56080;47.594;19.116;2023-02-28T19:52:26;15.30;;;7.80;;
69026;SDS011;56080;47.594;19.116;2023-02-28T20:02:23;12.90;;;7.40;;
69026;SDS011;56080;47.594;19.116;2023-02-28T20:12:32;14.80;;;7.90;;
69026;SDS011;56080;47.594;19.116;2023-02-28T20:22:19;15.00;;;8.00;;
69026;SDS011;56080;47.594;19.116;2023-02-28T20:32:20;14.00;;;8.10;;
69026;SDS011;56080;47.594;19.116;2023-02-28T20:42:22;14.70;;;8.60;;
69026;SDS011;56080;47.594;19.116;2023-02-28T20:52:20;17.90;;;9.50;;
69026;SDS011;56080;47.594;19.116;2023-02-28T21:02:23;16.00;;;9.20;;
69026;SDS011;56080;47.594;19.116;2023-02-28T21:12:21;17.00;;;9.30;;
69026;SDS011;56080;47.594;19.116;2023-02-28T21:22:21;17.80;;;9.50;;
69026;SDS011;56080;47.594;19.116;2023-02-28T21:42:22;21.10;;;11.50;;
69026;SDS011;56080;47.594;19.116;2023-02-28T21:52:21;16.40;;;9.10;;
69026;SDS011;56080;47.594;19.116;2023-02-28T22:02:22;16.90;;;9.30;;
69026;SDS011;56080;47.594;19.116;2023-02-28T22:12:22;14.60;;;9.10;;
69026;SDS011;56080;47.594;19.116;2023-02-28T22:22:23;16.10;;;8.30;;
69026;SDS011;56080;47.594;19.116;2023-02-28T22:32:24;15.50;;;9.00;;
69026;SDS011;56080;47.594;19.116;2023-02-28T22:42:23;18.60;;;10.50;;
69026;SDS011;56080;47.594;19.116;2023-02-28T22:52:23;15.40;;;8.70;;
69026;SDS011;56080;47.594;19.116;2023-02-28T23:02:24;17.00;;;9.50;;
69026;SDS011;56080;47.594;19.116;2023-02-28T23:12:24;19.60;;;10.80;;
69026;SDS011;56080;47.594;19.116;2023-02-28T23:22:24;21.30;;;11.50;;
69026;SDS011;56080;47.594;19.116;2023-02-28T23:32:25;22.70;;;12.80;;
69026;SDS011;56080;47.594;19.116;2023-02-28T23:42:25;19.50;;;10.90;;
69026;SDS011;56080;47.594;19.116;2023-02-28T23:52:25;19.40;;;11.20;;
